Terminal Aerodrome Forecast
Issued by NWS

Home | Current Version | Previous Version | Text Only | Print | Product List | Glossary Off
Versions: 1 2 3 4 5 6 7 8 9 10 11 12 13 14 15 16 17 18 19

000
FTUS43 KMPX 231724
TAFAXN
TAF
KAXN 231724Z 2318/2418 23015G23KT P6SM VCSH SCT030 BKN045
      TEMPO 2318/2322 BKN030
     FM232200 23009KT P6SM VCSH SCT025 BKN050
     FM240600 26003KT P6SM SCT100=

USA.gov is the U.S. government's official web portal to all federal, state and local government web resources and services.